»·PEaware :: N617TD KSAF-KABQ

N617TD :: KSAF-KABQ

FLIGHT INFORMATION

Flight Status: Arrived
Operator: Privately registered:
United States
More flights under this callsign
Pilot: Thomas H. (30883)
Aircraft: CESSNA 172 SKYHAWK
(C172)
More flights by this aircraft type
Origin: KSAF Santa Fe Mun
United States
Destination: KABQ Albuquerque Intl Sunport
United States
More flights between these airports :: More routes between these airports
Route: +SAF V611 NELGE V611 NODME
File this flight plan on PilotEdge
Remarks:
Altitude:
(Current/Filed)
1,000ft
Speed:
(Current/Filed)
105kts
Departed: 02-Aug-20 02:36 PM
Arrived: 02-Aug-20 03:24 PM
Distance/Time
Traveled:
43nm/0:48
Distance/Time
To Go:
Arrived

Flight Plot

Page will automatically refresh every two minutes.

Flight plan parsing failed; only flown route is shown


Map Options




Map Legend


Flown Route
Filed Route
Departure Airport
Arrival Airport
Navaid (VOR, NDB)
Fix

Horizontal Profiles

Position Reports

Time Latitude Longitude Heading Altitude Ground
Speed
02-Aug-20 14:26 35.616783 -106.084320 21 6352ft 0kts
02-Aug-20 14:27 35.616783 -106.084320 21 6352ft 0kts
02-Aug-20 14:28 35.616783 -106.084320 21 6352ft 0kts
02-Aug-20 14:29 35.616789 -106.085179 266 6352ft 7kts
02-Aug-20 14:30 35.619041 -106.085372 33 6352ft 16kts
02-Aug-20 14:31 35.619463 -106.084993 36 6352ft 0kts
02-Aug-20 14:32 35.619913 -106.084575 33 6352ft 12kts
02-Aug-20 14:33 35.624422 -106.080675 28 6352ft 18kts
02-Aug-20 14:34 35.626053 -106.079589 338 6352ft 0kts
02-Aug-20 14:35 35.625462 -106.081421 216 6352ft 42kts
02-Aug-20 14:36 35.608404 -106.095446 213 6738ft 76kts
02-Aug-20 14:37 35.593515 -106.081582 119 7220ft 98kts
02-Aug-20 14:38 35.572854 -106.070777 191 7661ft 83kts
02-Aug-20 14:39 35.549269 -106.065793 184 8080ft 85kts
02-Aug-20 14:40 35.535309 -106.084439 245 8470ft 75kts
02-Aug-20 14:41 35.525409 -106.107993 247 8823ft 78kts
02-Aug-20 14:42 35.517061 -106.132517 249 9185ft 78kts
02-Aug-20 14:43 35.507713 -106.157004 252 9524ft 79kts
02-Aug-20 14:44 35.502517 -106.183151 255 9846ft 80kts
02-Aug-20 14:45 35.494760 -106.209581 256 10033ft 86kts
02-Aug-20 14:46 35.487972 -106.239478 255 10089ft 94kts
02-Aug-20 14:47 35.479611 -106.271790 257 10070ft 101kts
02-Aug-20 14:48 35.474131 -106.305453 255 10102ft 101kts
02-Aug-20 14:49 35.455965 -106.332595 230 10136ft 104kts
02-Aug-20 14:50 35.436668 -106.362270 238 9955ft 113kts
02-Aug-20 14:51 35.419682 -106.394251 241 9945ft 111kts
02-Aug-20 14:52 35.403731 -106.427181 243 9909ft 112kts
02-Aug-20 14:53 35.388115 -106.460221 241 9897ft 112kts
02-Aug-20 14:54 35.374181 -106.494293 247 9918ft 111kts
02-Aug-20 14:55 35.362319 -106.529646 250 9940ft 111kts
02-Aug-20 14:56 35.338503 -106.553454 210 9934ft 116kts
02-Aug-20 14:57 35.312866 -106.576363 224 9964ft 114kts
02-Aug-20 14:58 35.290855 -106.604230 230 9988ft 113kts
02-Aug-20 14:59 35.267221 -106.629643 211 10004ft 115kts
02-Aug-20 15:00 35.239123 -106.648729 214 10012ft 115kts
02-Aug-20 15:01 35.211597 -106.668551 207 10023ft 117kts
02-Aug-20 15:02 35.181579 -106.686026 211 9964ft 119kts
02-Aug-20 15:03 35.152124 -106.704693 209 9947ft 118kts
02-Aug-20 15:04 35.122363 -106.722409 209 9907ft 119kts
02-Aug-20 15:05 35.092992 -106.740282 210 9707ft 119kts
02-Aug-20 15:06 35.064378 -106.758383 206 9130ft 118kts
02-Aug-20 15:07 35.034284 -106.777188 210 8158ft 119kts
02-Aug-20 15:08 35.005313 -106.796959 205 7414ft 113kts
02-Aug-20 15:09 34.979084 -106.814208 219 7420ft 106kts
02-Aug-20 15:10 34.955459 -106.835239 219 7441ft 103kts
02-Aug-20 15:11 34.932879 -106.856729 219 7436ft 103kts
02-Aug-20 15:12 34.909803 -106.877641 219 7431ft 103kts
02-Aug-20 15:13 34.885471 -106.868097 131 7468ft 117kts
02-Aug-20 15:14 34.867762 -106.834709 128 7421ft 116kts
02-Aug-20 15:15 34.871745 -106.801717 6 7474ft 128kts
02-Aug-20 15:16 34.905493 -106.793271 8 7471ft 122kts
02-Aug-20 15:17 34.932695 -106.771520 60 7404ft 124kts
02-Aug-20 15:18 34.946846 -106.733069 72 7413ft 125kts
02-Aug-20 15:19 34.966019 -106.698400 42 7171ft 123kts
02-Aug-20 15:20 34.989184 -106.671585 45 6352ft 107kts
02-Aug-20 15:21 35.007238 -106.649434 46 5814ft 78kts
02-Aug-20 15:22 35.021935 -106.631023 49 5310ft 64kts
02-Aug-20 15:23 35.030429 -106.622409 330 5309ft 0kts
02-Aug-20 15:24 35.032243 -106.620694 45 5309ft 22kts
02-Aug-20 15:25 35.037194 -106.616103 3 5311ft 0kts
02-Aug-20 15:26 35.037194 -106.616103 3 5311ft 0kts

Navigation Log

Ident Type
Flight plan parsing failed, navigation log unavailable